createdAt,value
2019-04-10T00:01:45.540Z,99914.05
2019-04-10T00:06:47.957Z,99911.59
2019-04-10T00:11:51.145Z,99910.59
2019-04-10T00:16:54.320Z,99910.33
2019-04-10T00:21:57.779Z,99902.14
2019-04-10T00:27:00.142Z,99895.48
2019-04-10T00:32:02.365Z,99900.27
2019-04-10T00:37:05.767Z,99899.06
2019-04-10T00:42:08.498Z,99899.06
2019-04-10T00:47:10.911Z,99904.95
2019-04-10T00:52:12.957Z,99908.95
2019-04-10T00:57:15.063Z,99908.53
2019-04-10T01:02:17.109Z,99904.20
2019-04-10T01:07:32.128Z,99901.02
2019-04-10T01:12:23.655Z,99890.12
2019-04-10T01:17:26.336Z,99897.14
2019-04-10T01:22:28.509Z,99878.52
2019-04-10T01:27:30.730Z,99887.73
2019-04-10T01:32:32.882Z,99887.73
2019-04-10T01:37:46.734Z,99881.14
2019-04-10T01:42:39.041Z,99880.66
2019-04-10T01:47:41.477Z,99874.27
2019-04-10T01:52:43.648Z,99874.27
2019-04-10T01:57:46.331Z,99877.20
2019-04-10T02:02:50.355Z,99860.66
2019-04-10T02:08:02.162Z,99874.04
2019-04-10T02:12:56.993Z,99874.04
2019-04-10T02:17:59.213Z,99869.37
2019-04-10T02:23:01.727Z,99872.06
2019-04-10T02:28:04.890Z,99866.00
2019-04-10T02:33:08.348Z,99876.17
2019-04-10T02:38:27.455Z,99876.17
2019-04-10T02:43:16.131Z,99874.61
2019-04-10T02:48:19.354Z,99862.70
2019-04-10T02:53:22.076Z,99868.48
2019-04-10T02:58:26.525Z,99872.91
2019-04-10T03:03:29.998Z,99877.38
2019-04-10T03:08:44.692Z,99870.98
2019-04-10T03:13:37.945Z,99871.20
2019-04-10T03:18:41.028Z,99871.18
2019-04-10T03:23:43.233Z,99871.18
2019-04-10T03:28:45.339Z,99879.72
2019-04-10T03:34:18.820Z,99869.81
2019-04-10T03:39:20.189Z,99867.16
2019-04-10T03:44:22.868Z,99873.66
2019-04-10T03:49:25.557Z,99878.50
2019-04-10T03:54:28.040Z,99878.17
2019-04-10T03:59:30.603Z,99879.50
2019-04-10T04:04:33.361Z,99877.77
2019-04-10T04:09:35.677Z,99883.42
2019-04-10T04:14:38.734Z,99882.47
2019-04-10T04:19:41.860Z,99890.05
2019-04-10T04:24:44.283Z,99892.33
2019-04-10T04:29:47.461Z,99877.39
2019-04-10T04:34:49.844Z,99890.86
2019-04-10T04:39:52.171Z,99897.87
2019-04-10T04:44:54.506Z,99898.11
2019-04-10T04:49:56.605Z,99895.41
2019-04-10T04:54:58.704Z,99906.96
2019-04-10T05:00:01.147Z,99909.23
2019-04-10T05:05:04.465Z,99916.01
2019-04-10T05:10:07.170Z,99926.44
2019-04-10T05:15:09.573Z,99929.49
2019-04-10T05:20:12.198Z,99930.50
2019-04-10T05:25:14.287Z,99929.83
2019-04-10T05:30:16.504Z,99942.84
2019-04-10T05:35:19.297Z,99942.46
2019-04-10T05:40:21.570Z,99945.50
2019-04-10T05:45:23.996Z,99948.67
2019-04-10T05:50:26.072Z,99955.61
2019-04-10T05:55:28.879Z,99962.72
2019-04-10T06:00:31.017Z,99968.42
2019-04-10T06:05:34.114Z,99974.63
2019-04-10T06:10:36.379Z,99966.61
2019-04-10T06:15:39.145Z,99982.74
2019-04-10T06:20:41.829Z,99982.59
2019-04-10T06:25:43.913Z,99980.98
2019-04-10T06:30:46.019Z,99980.42
2019-04-10T06:35:48.966Z,99993.68
2019-04-10T06:40:52.315Z,99991.31
2019-04-10T06:45:54.501Z,99988.47
2019-04-10T06:50:56.636Z,99991.31
2019-04-10T06:55:58.670Z,99996.47
2019-04-10T07:01:01.802Z,100002.40
2019-04-10T07:06:11.453Z,100010.23
2019-04-10T07:11:10.575Z,100009.73
2019-04-10T07:16:12.742Z,100018.80
2019-04-10T07:21:14.809Z,100019.81
2019-04-10T07:26:22.740Z,100024.36
2019-04-10T07:31:21.418Z,100020.51
2019-04-10T07:36:24.529Z,100026.87
2019-04-10T07:41:26.649Z,100026.08
2019-04-10T07:46:28.715Z,100036.48
2019-04-10T07:51:31.806Z,100033.47
2019-04-10T07:56:35.369Z,100028.20
2019-04-10T08:01:37.610Z,100033.89
2019-04-10T08:06:39.638Z,100035.08
2019-04-10T08:11:42.544Z,100035.08
2019-04-10T08:16:45.555Z,100042.05
2019-04-10T08:21:47.682Z,100042.62
2019-04-10T08:26:49.724Z,100042.23
2019-04-10T08:31:52.518Z,100056.96
2019-04-10T08:36:56.489Z,100051.36
2019-04-10T08:41:58.679Z,100046.80
2019-04-10T08:47:00.721Z,100046.80
2019-04-10T08:52:03.956Z,100050.34
2019-04-10T08:57:07.322Z,100057.13
2019-04-10T09:02:09.653Z,100054.28
2019-04-10T09:07:11.753Z,100054.28
2019-04-10T09:12:13.899Z,100056.95
2019-04-10T09:17:15.983Z,100056.95
2019-04-10T09:22:18.048Z,100060.67
2019-04-10T09:27:21.217Z,100049.20
2019-04-10T09:32:23.462Z,100048.64
2019-04-10T09:37:26.127Z,100052.86
2019-04-10T09:42:28.254Z,100047.78
2019-04-10T09:47:30.446Z,100047.42
2019-04-10T09:52:32.465Z,100053.77
2019-04-10T09:57:34.653Z,100049.67
2019-04-10T10:02:37.871Z,100045.33
2019-04-10T10:07:41.056Z,100044.95
2019-04-10T10:12:43.144Z,100034.90
2019-04-10T10:17:46.603Z,100030.28
2019-04-10T10:22:49.505Z,100030.85
2019-04-10T10:27:51.686Z,100033.52
2019-04-10T10:32:53.746Z,100031.59
2019-04-10T10:37:56.874Z,100037.66
2019-04-10T10:43:00.232Z,100018.73
2019-04-10T10:48:03.316Z,100020.66
2019-04-10T10:53:06.121Z,100026.20
2019-04-10T10:58:08.312Z,100027.70
2019-04-10T11:03:10.367Z,100031.70
2019-04-10T11:08:13.072Z,100025.19
2019-04-10T11:13:15.258Z,100020.64
2019-04-10T11:18:18.133Z,100021.30
2019-04-10T11:23:20.223Z,100025.02
2019-04-10T11:28:28.620Z,100016.19
2019-04-10T11:33:26.351Z,100006.02
2019-04-10T11:38:29.056Z,100013.34
2019-04-10T11:43:31.228Z,100014.60
2019-04-10T11:48:34.099Z,100016.64
2019-04-10T11:53:41.294Z,100012.26
2019-04-10T11:58:50.718Z,100012.59
2019-04-10T12:03:49.077Z,100010.60
2019-04-10T12:09:08.276Z,100008.50
2019-04-10T12:13:52.131Z,100012.77
2019-04-10T12:18:55.867Z,100021.80
2019-04-10T12:23:58.925Z,100016.87
2019-04-10T12:29:00.952Z,100017.02
2019-04-10T12:34:04.575Z,100013.17
2019-04-10T12:39:08.405Z,100025.00
2019-04-10T12:44:11.595Z,100017.33
2019-04-10T12:49:15.054Z,100015.06
2019-04-10T12:54:17.374Z,100016.98
2019-04-10T12:59:19.537Z,100017.98
2019-04-10T13:04:22.302Z,100017.50
2019-04-10T13:09:24.460Z,100023.35
2019-04-10T13:14:26.600Z,100024.81
2019-04-10T13:19:29.159Z,100023.63
2019-04-10T13:24:31.386Z,100023.02
2019-04-10T13:29:33.762Z,100023.98
2019-04-10T13:34:35.844Z,100030.73
2019-04-10T13:39:39.028Z,100021.58
2019-04-10T13:44:42.453Z,100016.47
2019-04-10T13:49:44.631Z,100023.94
2019-04-10T13:54:47.126Z,100019.86
2019-04-10T13:59:49.335Z,100020.42
2019-04-10T14:04:51.445Z,100019.17
2019-04-10T14:09:54.451Z,100025.84
2019-04-10T14:14:57.321Z,100029.29
2019-04-10T14:20:00.121Z,100027.37
2019-04-10T14:25:03.137Z,100039.70
2019-04-10T14:30:09.163Z,100032.41
2019-04-10T14:35:11.480Z,100033.84
2019-04-10T14:40:14.455Z,100040.44
2019-04-10T14:45:17.201Z,100041.53
2019-04-10T14:50:19.772Z,100043.09
2019-04-10T14:55:22.128Z,100050.56
2019-04-10T15:00:37.734Z,100050.81
2019-04-10T15:05:48.636Z,100058.25
2019-04-10T15:10:44.004Z,100056.27
2019-04-10T15:15:46.132Z,100054.67
2019-04-10T15:20:49.188Z,100061.64
2019-04-10T15:25:51.513Z,100064.27
2019-04-10T15:30:53.742Z,100068.39
2019-04-10T15:35:55.786Z,100057.32
2019-04-10T15:40:58.727Z,100063.50
2019-04-10T15:46:00.911Z,100066.31
2019-04-10T15:51:03.621Z,100077.18
2019-04-10T15:56:05.795Z,100070.37
2019-04-10T16:01:11.825Z,100075.45
2019-04-10T16:06:14.008Z,100073.87
2019-04-10T16:11:54.344Z,100085.09
2019-04-10T16:17:25.798Z,100085.58
2019-04-10T16:22:31.314Z,100088.47
2019-04-10T16:27:33.428Z,100104.47
2019-04-10T16:32:35.437Z,100108.45
2019-04-10T16:37:37.662Z,100113.84
2019-04-10T16:42:41.372Z,100112.78
2019-04-10T16:47:44.033Z,100124.23
2019-04-10T16:52:47.371Z,100134.16
2019-04-10T16:57:49.875Z,100136.91
2019-04-10T17:02:52.714Z,100139.21
2019-04-10T17:07:55.378Z,100149.20
2019-04-10T17:12:58.261Z,100148.08
2019-04-10T17:18:01.050Z,100155.47
2019-04-10T17:23:04.888Z,100155.47
2019-04-10T17:28:08.037Z,100165.72
2019-04-10T17:33:11.057Z,100167.77
2019-04-10T17:38:14.218Z,100173.81
2019-04-10T17:43:16.978Z,100179.08
2019-04-10T17:48:20.012Z,100193.00
2019-04-10T17:53:23.139Z,100204.36
2019-04-10T17:58:25.462Z,100207.88
2019-04-10T18:03:40.526Z,100214.91
2019-04-10T18:08:32.655Z,100222.24
2019-04-10T18:13:34.861Z,100224.23
2019-04-10T18:18:37.995Z,100233.52
2019-04-10T18:23:40.095Z,100237.89
2019-04-10T18:28:43.478Z,100251.97
2019-04-10T18:33:46.858Z,100259.31
2019-04-10T18:38:50.090Z,100271.03
2019-04-10T18:43:53.167Z,100282.42
2019-04-10T18:48:55.204Z,100296.19
2019-04-10T18:53:57.657Z,100290.39
2019-04-10T18:59:12.278Z,100307.32
2019-04-10T19:04:20.281Z,100313.78
2019-04-10T19:09:28.112Z,100315.42
2019-04-10T19:14:34.843Z,100324.05
2019-04-10T19:19:38.983Z,100329.09
2019-04-10T19:24:41.664Z,100338.41
2019-04-10T19:29:43.874Z,100337.41
2019-04-10T19:34:46.153Z,100346.66
2019-04-10T19:39:48.779Z,100356.45
2019-04-10T19:44:51.034Z,100367.26
2019-04-10T19:49:53.114Z,100370.44
2019-04-10T19:54:55.527Z,100377.55
2019-04-10T19:59:57.904Z,100383.67
2019-04-10T20:05:01.135Z,100390.23
2019-04-10T20:16:00.818Z,100406.20
2019-04-10T20:21:03.805Z,100400.81
2019-04-10T20:26:07.112Z,100400.81
2019-04-10T20:31:15.046Z,100411.56
2019-04-10T20:36:17.668Z,100418.12
2019-04-10T20:41:19.663Z,100422.41
2019-04-10T20:46:22.254Z,100429.52
2019-04-10T20:51:24.967Z,100435.62
2019-04-10T20:56:27.169Z,100435.62
2019-04-10T21:01:29.484Z,100444.00
2019-04-10T21:06:31.824Z,100450.05
2019-04-10T21:11:33.991Z,100446.29
2019-04-10T21:16:36.047Z,100459.26
2019-04-10T21:21:39.095Z,100466.77
2019-04-10T21:26:41.263Z,100467.78
2019-04-10T21:31:59.004Z,100466.85
2019-04-10T21:37:01.761Z,100468.49
2019-04-10T21:42:14.765Z,100480.23
2019-04-10T21:47:08.923Z,100480.23
2019-04-10T21:52:11.323Z,100489.77
2019-04-10T21:57:13.817Z,100481.94
2019-04-10T22:02:16.089Z,100482.87
2019-04-10T22:07:44.814Z,100490.14
2019-04-10T22:12:49.206Z,100494.87
2019-04-10T22:17:52.354Z,100492.66
2019-04-10T22:22:55.503Z,100504.83
2019-04-10T22:27:58.345Z,100498.04
2019-04-10T22:33:00.496Z,100509.28
2019-04-10T22:38:02.700Z,100509.28
2019-04-10T22:43:05.444Z,100517.30
2019-04-10T22:48:08.391Z,100522.78
2019-04-10T22:53:10.896Z,100522.02
2019-04-10T22:58:13.221Z,100522.39
2019-04-10T23:03:15.821Z,100523.78
2019-04-10T23:08:17.938Z,100529.27
2019-04-10T23:13:20.015Z,100521.38
2019-04-10T23:18:23.475Z,100525.39
2019-04-10T23:23:25.716Z,100535.58
2019-04-10T23:28:27.811Z,100544.68
2019-04-10T23:33:30.196Z,100545.77
2019-04-10T23:38:33.239Z,100546.83
2019-04-10T23:43:35.703Z,100546.83
2019-04-10T23:48:37.833Z,100544.70
2019-04-10T23:53:40.469Z,100546.34
2019-04-10T23:58:42.578Z,100544.47
